sensor_id;sensor_type;location;lat;lon;timestamp;temperature;humidity
16728;DHT22;8482;54.396;18.590;2023-05-15T06:12:59;16.10;99.90
16728;DHT22;8482;54.396;18.590;2023-05-15T06:15:25;16.20;99.90
16728;DHT22;8482;54.396;18.590;2023-05-15T06:17:51;16.10;99.90
16728;DHT22;8482;54.396;18.590;2023-05-15T06:20:17;16.20;99.90
16728;DHT22;8482;54.396;18.590;2023-05-15T06:22:43;16.20;99.90
16728;DHT22;8482;54.396;18.590;2023-05-15T06:25:09;16.20;99.90
16728;DHT22;8482;54.396;18.590;2023-05-15T06:27:41;16.20;99.90
16728;DHT22;8482;54.396;18.590;2023-05-15T06:30:08;16.20;99.90
16728;DHT22;8482;54.396;18.590;2023-05-15T06:32:34;16.30;99.90
16728;DHT22;8482;54.396;18.590;2023-05-15T06:35:01;16.30;99.90
16728;DHT22;8482;54.396;18.590;2023-05-15T06:37:27;16.30;99.90
16728;DHT22;8482;54.396;18.590;2023-05-15T06:39:53;16.30;99.90
16728;DHT22;8482;54.396;18.590;2023-05-15T06:42:21;16.30;99.90
16728;DHT22;8482;54.396;18.590;2023-05-15T06:44:47;16.30;99.90
16728;DHT22;8482;54.396;18.590;2023-05-15T06:47:14;16.40;99.90
16728;DHT22;8482;54.396;18.590;2023-05-15T06:49:40;16.40;99.90
16728;DHT22;8482;54.396;18.590;2023-05-15T06:52:06;16.40;99.90
16728;DHT22;8482;54.396;18.590;2023-05-15T06:54:32;16.40;99.90
16728;DHT22;8482;54.396;18.590;2023-05-15T06:56:58;16.50;99.90
16728;DHT22;8482;54.396;18.590;2023-05-15T06:59:24;16.50;99.90
16728;DHT22;8482;54.396;18.590;2023-05-15T07:01:50;16.50;99.90
16728;DHT22;8482;54.396;18.590;2023-05-15T07:04:16;16.50;99.90
16728;DHT22;8482;54.396;18.590;2023-05-15T07:06:42;16.50;99.90
16728;DHT22;8482;54.396;18.590;2023-05-15T07:09:08;16.60;99.90
16728;DHT22;8482;54.396;18.590;2023-05-15T07:11:34;16.60;99.90
16728;DHT22;8482;54.396;18.590;2023-05-15T07:14:02;16.60;99.90
16728;DHT22;8482;54.396;18.590;2023-05-15T07:16:29;16.70;99.90
16728;DHT22;8482;54.396;18.590;2023-05-15T07:18:55;16.70;99.90
16728;DHT22;8482;54.396;18.590;2023-05-15T07:21:20;16.80;99.90
16728;DHT22;8482;54.396;18.590;2023-05-15T07:23:46;16.80;99.90
16728;DHT22;8482;54.396;18.590;2023-05-15T07:26:13;16.80;99.90
16728;DHT22;8482;54.396;18.590;2023-05-15T07:28:39;16.90;99.90
16728;DHT22;8482;54.396;18.590;2023-05-15T07:31:06;16.90;99.90
16728;DHT22;8482;54.396;18.590;2023-05-15T07:33:32;16.90;99.90
16728;DHT22;8482;54.396;18.590;2023-05-15T07:35:58;17.00;99.90
16728;DHT22;8482;54.396;18.590;2023-05-15T07:38:24;17.00;99.90
16728;DHT22;8482;54.396;18.590;2023-05-15T07:40:50;17.10;99.90
16728;DHT22;8482;54.396;18.590;2023-05-15T07:43:16;17.10;99.90
16728;DHT22;8482;54.396;18.590;2023-05-15T07:45:42;17.10;99.90
16728;DHT22;8482;54.396;18.590;2023-05-15T07:48:16;17.20;99.90
16728;DHT22;8482;54.396;18.590;2023-05-15T07:50:44;17.20;99.90
16728;DHT22;8482;54.396;18.590;2023-05-15T07:53:12;17.20;99.90
16728;DHT22;8482;54.396;18.590;2023-05-15T07:55:41;17.30;99.90
16728;DHT22;8482;54.396;18.590;2023-05-15T07:58:08;17.30;99.90
16728;DHT22;8482;54.396;18.590;2023-05-15T08:00:34;17.30;99.90
16728;DHT22;8482;54.396;18.590;2023-05-15T08:03:00;17.30;99.90
16728;DHT22;8482;54.396;18.590;2023-05-15T08:05:26;17.40;99.90
16728;DHT22;8482;54.396;18.590;2023-05-15T08:07:53;17.40;99.90
16728;DHT22;8482;54.396;18.590;2023-05-15T08:10:19;17.50;99.90
16728;DHT22;8482;54.396;18.590;2023-05-15T08:12:45;17.50;99.90
16728;DHT22;8482;54.396;18.590;2023-05-15T08:15:11;17.60;99.90
16728;DHT22;8482;54.396;18.590;2023-05-15T08:17:37;17.60;99.90
16728;DHT22;8482;54.396;18.590;2023-05-15T08:20:04;17.60;99.90
16728;DHT22;8482;54.396;18.590;2023-05-15T08:22:30;17.70;99.90
16728;DHT22;8482;54.396;18.590;2023-05-15T08:24:57;17.70;99.90
16728;DHT22;8482;54.396;18.590;2023-05-15T08:27:24;17.70;99.90
16728;DHT22;8482;54.396;18.590;2023-05-15T08:29:50;17.70;99.90
16728;DHT22;8482;54.396;18.590;2023-05-15T08:32:17;17.80;99.90
16728;DHT22;8482;54.396;18.590;2023-05-15T08:34:43;17.80;99.90
16728;DHT22;8482;54.396;18.590;2023-05-15T08:37:09;17.80;99.90
16728;DHT22;8482;54.396;18.590;2023-05-15T08:39:35;17.80;99.90
16728;DHT22;8482;54.396;18.590;2023-05-15T08:42:08;17.80;99.90
16728;DHT22;8482;54.396;18.590;2023-05-15T08:44:40;17.80;99.90
16728;DHT22;8482;54.396;18.590;2023-05-15T08:47:06;17.90;99.90
16728;DHT22;8482;54.396;18.590;2023-05-15T08:52:14;17.90;99.90
16728;DHT22;8482;54.396;18.590;2023-05-15T08:54:40;18.00;99.90
16728;DHT22;8482;54.396;18.590;2023-05-15T08:57:08;18.00;99.90
16728;DHT22;8482;54.396;18.590;2023-05-15T08:59:36;18.00;99.90
16728;DHT22;8482;54.396;18.590;2023-05-15T09:02:02;18.00;99.90
16728;DHT22;8482;54.396;18.590;2023-05-15T09:04:28;18.00;99.90
16728;DHT22;8482;54.396;18.590;2023-05-15T09:06:54;18.10;99.90
16728;DHT22;8482;54.396;18.590;2023-05-15T09:09:23;18.10;99.90
16728;DHT22;8482;54.396;18.590;2023-05-15T09:11:49;18.10;99.90
16728;DHT22;8482;54.396;18.590;2023-05-15T09:14:16;18.20;99.90
16728;DHT22;8482;54.396;18.590;2023-05-15T09:16:42;18.20;99.90
16728;DHT22;8482;54.396;18.590;2023-05-15T09:19:09;18.20;99.90
16728;DHT22;8482;54.396;18.590;2023-05-15T09:21:36;18.20;99.10
16728;DHT22;8482;54.396;18.590;2023-05-15T09:26:46;18.30;98.10
16728;DHT22;8482;54.396;18.590;2023-05-15T09:29:26;18.30;98.10
16728;DHT22;8482;54.396;18.590;2023-05-15T09:31:54;18.40;97.40
16728;DHT22;8482;54.396;18.590;2023-05-15T09:34:29;18.40;97.20
16728;DHT22;8482;54.396;18.590;2023-05-15T09:36:56;18.40;96.80
16728;DHT22;8482;54.396;18.590;2023-05-15T09:39:23;18.50;96.70
16728;DHT22;8482;54.396;18.590;2023-05-15T09:41:49;18.50;96.30
16728;DHT22;8482;54.396;18.590;2023-05-15T09:44:25;18.50;96.10
16728;DHT22;8482;54.396;18.590;2023-05-15T09:46:52;18.60;96.30
16728;DHT22;8482;54.396;18.590;2023-05-15T09:49:21;18.60;95.90
16728;DHT22;8482;54.396;18.590;2023-05-15T09:51:47;18.60;95.80
16728;DHT22;8482;54.396;18.590;2023-05-15T09:54:16;18.70;95.90
16728;DHT22;8482;54.396;18.590;2023-05-15T09:56:46;18.70;96.30
16728;DHT22;8482;54.396;18.590;2023-05-15T09:59:14;18.70;96.90
16728;DHT22;8482;54.396;18.590;2023-05-15T10:01:49;18.70;96.80
16728;DHT22;8482;54.396;18.590;2023-05-15T10:04:17;18.70;97.10
16728;DHT22;8482;54.396;18.590;2023-05-15T10:06:46;18.70;97.40
16728;DHT22;8482;54.396;18.590;2023-05-15T10:09:13;18.70;97.40
16728;DHT22;8482;54.396;18.590;2023-05-15T10:11:42;18.70;97.30
16728;DHT22;8482;54.396;18.590;2023-05-15T10:14:11;18.80;97.20
16728;DHT22;8482;54.396;18.590;2023-05-15T10:16:39;18.80;97.10
16728;DHT22;8482;54.396;18.590;2023-05-15T10:19:07;18.80;96.80
16728;DHT22;8482;54.396;18.590;2023-05-15T10:21:38;18.80;96.70
16728;DHT22;8482;54.396;18.590;2023-05-15T10:24:06;18.80;96.20
16728;DHT22;8482;54.396;18.590;2023-05-15T10:26:36;18.80;95.80
16728;DHT22;8482;54.396;18.590;2023-05-15T10:29:05;18.80;95.50
16728;DHT22;8482;54.396;18.590;2023-05-15T10:31:35;18.80;95.30
16728;DHT22;8482;54.396;18.590;2023-05-15T10:34:04;18.80;95.40
16728;DHT22;8482;54.396;18.590;2023-05-15T10:36:31;18.80;95.80
16728;DHT22;8482;54.396;18.590;2023-05-15T10:39:03;18.80;96.50
16728;DHT22;8482;54.396;18.590;2023-05-15T10:41:34;18.80;97.20
16728;DHT22;8482;54.396;18.590;2023-05-15T10:44:01;18.70;97.70
16728;DHT22;8482;54.396;18.590;2023-05-15T10:46:28;18.60;98.00
16728;DHT22;8482;54.396;18.590;2023-05-15T10:48:57;18.50;98.30
16728;DHT22;8482;54.396;18.590;2023-05-15T10:51:25;18.40;98.60
16728;DHT22;8482;54.396;18.590;2023-05-15T10:53:55;18.30;98.90
16728;DHT22;8482;54.396;18.590;2023-05-15T10:56:29;18.30;99.90
16728;DHT22;8482;54.396;18.590;2023-05-15T10:58:55;18.20;99.90
16728;DHT22;8482;54.396;18.590;2023-05-15T11:01:32;18.10;99.90
16728;DHT22;8482;54.396;18.590;2023-05-15T11:04:13;18.00;99.90
16728;DHT22;8482;54.396;18.590;2023-05-15T11:06:42;18.00;99.90
16728;DHT22;8482;54.396;18.590;2023-05-15T11:11:53;17.80;99.90
16728;DHT22;8482;54.396;18.590;2023-05-15T11:14:28;17.80;99.90
16728;DHT22;8482;54.396;18.590;2023-05-15T11:16:58;17.70;99.90
16728;DHT22;8482;54.396;18.590;2023-05-15T11:24:33;17.60;99.90
16728;DHT22;8482;54.396;18.590;2023-05-15T11:27:21;17.50;99.90
16728;DHT22;8482;54.396;18.590;2023-05-15T11:35:38;17.40;99.90
16728;DHT22;8482;54.396;18.590;2023-05-15T11:38:13;17.40;99.90
16728;DHT22;8482;54.396;18.590;2023-05-15T11:40:51;17.30;99.90
16728;DHT22;8482;54.396;18.590;2023-05-15T11:43:30;17.30;99.90
16728;DHT22;8482;54.396;18.590;2023-05-15T11:46:06;17.30;99.90
16728;DHT22;8482;54.396;18.590;2023-05-15T11:48:39;17.20;99.90
16728;DHT22;8482;54.396;18.590;2023-05-15T11:51:23;17.20;99.90
16728;DHT22;8482;54.396;18.590;2023-05-15T11:53:54;17.20;99.90
16728;DHT22;8482;54.396;18.590;2023-05-15T11:56:24;17.20;99.90
16728;DHT22;8482;54.396;18.590;2023-05-15T11:58:57;17.10;99.90
16728;DHT22;8482;54.396;18.590;2023-05-15T12:01:24;17.10;99.90
16728;DHT22;8482;54.396;18.590;2023-05-15T12:03:51;17.10;99.90
16728;DHT22;8482;54.396;18.590;2023-05-15T12:06:18;17.00;99.90
16728;DHT22;8482;54.396;18.590;2023-05-15T12:08:49;17.00;99.90
16728;DHT22;8482;54.396;18.590;2023-05-15T12:11:21;16.90;99.90
16728;DHT22;8482;54.396;18.590;2023-05-15T12:13:50;17.00;99.90
16728;DHT22;8482;54.396;18.590;2023-05-15T12:16:23;16.90;99.90
16728;DHT22;8482;54.396;18.590;2023-05-15T12:18:50;16.90;99.90
16728;DHT22;8482;54.396;18.590;2023-05-15T12:21:16;16.80;99.90
16728;DHT22;8482;54.396;18.590;2023-05-15T12:23:52;16.80;99.90
16728;DHT22;8482;54.396;18.590;2023-05-15T12:26:20;16.80;99.90
16728;DHT22;8482;54.396;18.590;2023-05-15T12:28:48;16.70;99.90
16728;DHT22;8482;54.396;18.590;2023-05-15T12:31:15;16.70;99.90
16728;DHT22;8482;54.396;18.590;2023-05-15T12:33:43;16.70;99.90
16728;DHT22;8482;54.396;18.590;2023-05-15T12:36:09;16.70;99.90
16728;DHT22;8482;54.396;18.590;2023-05-15T12:38:35;16.60;99.90
16728;DHT22;8482;54.396;18.590;2023-05-15T12:41:02;16.60;99.90
16728;DHT22;8482;54.396;18.590;2023-05-15T12:43:30;16.60;99.90
16728;DHT22;8482;54.396;18.590;2023-05-15T12:45:56;16.60;99.90
16728;DHT22;8482;54.396;18.590;2023-05-15T12:48:28;16.50;99.90
16728;DHT22;8482;54.396;18.590;2023-05-15T12:51:04;16.50;99.90
16728;DHT22;8482;54.396;18.590;2023-05-15T12:53:31;16.50;99.90
16728;DHT22;8482;54.396;18.590;2023-05-15T12:55:58;16.50;99.90
16728;DHT22;8482;54.396;18.590;2023-05-15T12:58:25;16.40;99.90
16728;DHT22;8482;54.396;18.590;2023-05-15T13:00:51;16.40;99.90
16728;DHT22;8482;54.396;18.590;2023-05-15T13:03:19;16.40;99.90
16728;DHT22;8482;54.396;18.590;2023-05-15T13:05:46;16.40;99.90
16728;DHT22;8482;54.396;18.590;2023-05-15T13:08:16;16.40;99.90
16728;DHT22;8482;54.396;18.590;2023-05-15T13:10:43;16.40;99.90
16728;DHT22;8482;54.396;18.590;2023-05-15T13:13:10;16.40;99.90
16728;DHT22;8482;54.396;18.590;2023-05-15T13:15:43;16.50;99.90
16728;DHT22;8482;54.396;18.590;2023-05-15T13:18:11;16.50;99.90
16728;DHT22;8482;54.396;18.590;2023-05-15T13:20:41;16.60;99.90
16728;DHT22;8482;54.396;18.590;2023-05-15T13:23:15;16.50;99.90
16728;DHT22;8482;54.396;18.590;2023-05-15T13:25:43;16.60;99.90
16728;DHT22;8482;54.396;18.590;2023-05-15T13:28:10;16.60;99.90
16728;DHT22;8482;54.396;18.590;2023-05-15T13:30:37;16.60;99.90
16728;DHT22;8482;54.396;18.590;2023-05-15T13:33:09;16.60;99.90
16728;DHT22;8482;54.396;18.590;2023-05-15T13:35:36;16.60;99.90
16728;DHT22;8482;54.396;18.590;2023-05-15T13:38:03;16.70;99.90
16728;DHT22;8482;54.396;18.590;2023-05-15T13:40:29;16.70;99.90
16728;DHT22;8482;54.396;18.590;2023-05-15T13:42:59;16.70;99.90
16728;DHT22;8482;54.396;18.590;2023-05-15T13:45:25;16.70;99.90
16728;DHT22;8482;54.396;18.590;2023-05-15T13:47:51;16.70;99.90
16728;DHT22;8482;54.396;18.590;2023-05-15T13:50:18;16.70;99.90
16728;DHT22;8482;54.396;18.590;2023-05-15T13:52:46;16.80;99.90
16728;DHT22;8482;54.396;18.590;2023-05-15T13:55:11;16.70;99.90
16728;DHT22;8482;54.396;18.590;2023-05-15T13:57:41;16.80;99.90
16728;DHT22;8482;54.396;18.590;2023-05-15T14:00:10;16.80;99.90
16728;DHT22;8482;54.396;18.590;2023-05-15T14:02:38;16.70;99.90
16728;DHT22;8482;54.396;18.590;2023-05-15T14:05:05;16.70;99.90
16728;DHT22;8482;54.396;18.590;2023-05-15T14:07:32;16.70;99.90
16728;DHT22;8482;54.396;18.590;2023-05-15T14:09:58;16.70;99.90
16728;DHT22;8482;54.396;18.590;2023-05-15T14:12:24;16.70;99.90
16728;DHT22;8482;54.396;18.590;2023-05-15T14:14:50;16.70;99.90
16728;DHT22;8482;54.396;18.590;2023-05-15T14:17:16;16.60;99.90
16728;DHT22;8482;54.396;18.590;2023-05-15T14:19:42;16.60;99.90
16728;DHT22;8482;54.396;18.590;2023-05-15T14:22:09;16.60;99.90
16728;DHT22;8482;54.396;18.590;2023-05-15T14:24:35;16.50;99.90
16728;DHT22;8482;54.396;18.590;2023-05-15T14:27:01;16.50;99.90
16728;DHT22;8482;54.396;18.590;2023-05-15T14:29:27;16.50;99.90
16728;DHT22;8482;54.396;18.590;2023-05-15T14:31:54;16.50;99.90
16728;DHT22;8482;54.396;18.590;2023-05-15T14:34:20;16.50;99.90
16728;DHT22;8482;54.396;18.590;2023-05-15T14:36:47;16.40;99.90
16728;DHT22;8482;54.396;18.590;2023-05-15T14:39:14;16.40;99.90
16728;DHT22;8482;54.396;18.590;2023-05-15T14:41:41;16.40;99.90
16728;DHT22;8482;54.396;18.590;2023-05-15T14:44:07;16.40;99.90
16728;DHT22;8482;54.396;18.590;2023-05-15T14:46:33;16.40;99.90
16728;DHT22;8482;54.396;18.590;2023-05-15T14:49:05;16.30;99.90
16728;DHT22;8482;54.396;18.590;2023-05-15T14:51:31;16.30;99.90
16728;DHT22;8482;54.396;18.590;2023-05-15T14:53:57;16.30;99.90
16728;DHT22;8482;54.396;18.590;2023-05-15T14:56:23;16.30;99.90
16728;DHT22;8482;54.396;18.590;2023-05-15T14:58:50;16.20;99.90
16728;DHT22;8482;54.396;18.590;2023-05-15T15:01:18;16.20;99.90
16728;DHT22;8482;54.396;18.590;2023-05-15T15:03:44;16.20;99.90
16728;DHT22;8482;54.396;18.590;2023-05-15T15:06:10;16.10;99.90
16728;DHT22;8482;54.396;18.590;2023-05-15T15:08:36;16.10;99.90
16728;DHT22;8482;54.396;18.590;2023-05-15T15:11:02;16.10;99.90
16728;DHT22;8482;54.396;18.590;2023-05-15T15:13:28;16.10;99.90
16728;DHT22;8482;54.396;18.590;2023-05-15T15:15:55;16.10;99.90
16728;DHT22;8482;54.396;18.590;2023-05-15T15:18:21;16.00;99.90
16728;DHT22;8482;54.396;18.590;2023-05-15T15:20:47;16.00;99.90
16728;DHT22;8482;54.396;18.590;2023-05-15T15:23:13;16.00;99.90
16728;DHT22;8482;54.396;18.590;2023-05-15T15:25:39;15.90;99.90
16728;DHT22;8482;54.396;18.590;2023-05-15T15:28:07;15.90;99.90
16728;DHT22;8482;54.396;18.590;2023-05-15T15:30:33;15.90;99.90
16728;DHT22;8482;54.396;18.590;2023-05-15T15:32:59;15.80;99.90
16728;DHT22;8482;54.396;18.590;2023-05-15T15:35:25;15.80;99.90
16728;DHT22;8482;54.396;18.590;2023-05-15T15:37:51;15.80;99.90
16728;DHT22;8482;54.396;18.590;2023-05-15T15:40:39;15.80;99.90
16728;DHT22;8482;54.396;18.590;2023-05-15T15:43:05;15.80;99.90
16728;DHT22;8482;54.396;18.590;2023-05-15T15:45:31;15.70;99.90
16728;DHT22;8482;54.396;18.590;2023-05-15T15:47:56;15.70;99.90
16728;DHT22;8482;54.396;18.590;2023-05-15T15:50:22;15.70;99.90
16728;DHT22;8482;54.396;18.590;2023-05-15T15:52:48;15.70;99.90
16728;DHT22;8482;54.396;18.590;2023-05-15T15:55:14;15.60;99.90
16728;DHT22;8482;54.396;18.590;2023-05-15T15:57:40;15.60;99.90
16728;DHT22;8482;54.396;18.590;2023-05-15T16:00:06;15.60;99.90
16728;DHT22;8482;54.396;18.590;2023-05-15T16:02:32;15.60;99.90
16728;DHT22;8482;54.396;18.590;2023-05-15T16:04:58;15.60;99.90
16728;DHT22;8482;54.396;18.590;2023-05-15T16:07:24;15.60;99.90
16728;DHT22;8482;54.396;18.590;2023-05-15T16:09:50;15.60;99.90
16728;DHT22;8482;54.396;18.590;2023-05-15T16:12:16;15.60;99.90
16728;DHT22;8482;54.396;18.590;2023-05-15T16:14:42;15.60;99.90
16728;DHT22;8482;54.396;18.590;2023-05-15T16:17:07;15.70;99.90
16728;DHT22;8482;54.396;18.590;2023-05-15T16:19:33;15.70;99.90
16728;DHT22;8482;54.396;18.590;2023-05-15T16:21:59;15.70;99.90
16728;DHT22;8482;54.396;18.590;2023-05-15T16:24:25;15.70;99.90
16728;DHT22;8482;54.396;18.590;2023-05-15T16:26:51;15.60;99.90
16728;DHT22;8482;54.396;18.590;2023-05-15T16:29:17;15.70;99.90
16728;DHT22;8482;54.396;18.590;2023-05-15T16:31:43;15.70;99.90
16728;DHT22;8482;54.396;18.590;2023-05-15T16:34:11;15.60;99.90
16728;DHT22;8482;54.396;18.590;2023-05-15T16:36:37;15.60;99.90
16728;DHT22;8482;54.396;18.590;2023-05-15T16:39:03;15.60;99.90
16728;DHT22;8482;54.396;18.590;2023-05-15T16:41:29;15.60;99.90
16728;DHT22;8482;54.396;18.590;2023-05-15T16:43:56;15.60;99.90
16728;DHT22;8482;54.396;18.590;2023-05-15T16:46:21;15.60;99.90
16728;DHT22;8482;54.396;18.590;2023-05-15T16:48:47;15.60;99.90
16728;DHT22;8482;54.396;18.590;2023-05-15T16:51:13;15.50;99.90
16728;DHT22;8482;54.396;18.590;2023-05-15T16:53:39;15.50;99.90
16728;DHT22;8482;54.396;18.590;2023-05-15T16:56:05;15.50;99.90
16728;DHT22;8482;54.396;18.590;2023-05-15T16:58:31;15.40;99.90
16728;DHT22;8482;54.396;18.590;2023-05-15T17:00:58;15.40;99.90
16728;DHT22;8482;54.396;18.590;2023-05-15T17:03:24;15.40;99.90
16728;DHT22;8482;54.396;18.590;2023-05-15T17:05:50;15.40;99.90
16728;DHT22;8482;54.396;18.590;2023-05-15T17:08:16;15.40;99.90
16728;DHT22;8482;54.396;18.590;2023-05-15T17:10:42;15.30;99.90
16728;DHT22;8482;54.396;18.590;2023-05-15T17:13:08;15.30;99.90
16728;DHT22;8482;54.396;18.590;2023-05-15T17:15:34;15.30;99.90
16728;DHT22;8482;54.396;18.590;2023-05-15T17:18:00;15.30;99.90
16728;DHT22;8482;54.396;18.590;2023-05-15T17:20:25;15.30;99.90
16728;DHT22;8482;54.396;18.590;2023-05-15T17:22:51;15.30;99.90
16728;DHT22;8482;54.396;18.590;2023-05-15T17:25:17;15.20;99.90
16728;DHT22;8482;54.396;18.590;2023-05-15T17:27:43;15.30;99.90
16728;DHT22;8482;54.396;18.590;2023-05-15T17:30:10;15.20;99.90
16728;DHT22;8482;54.396;18.590;2023-05-15T17:32:39;15.30;99.90
16728;DHT22;8482;54.396;18.590;2023-05-15T17:35:06;15.30;99.90
16728;DHT22;8482;54.396;18.590;2023-05-15T17:37:32;15.30;99.90
16728;DHT22;8482;54.396;18.590;2023-05-15T17:39:59;15.20;99.90
16728;DHT22;8482;54.396;18.590;2023-05-15T17:42:25;15.20;99.90
16728;DHT22;8482;54.396;18.590;2023-05-15T17:44:53;15.20;99.90
16728;DHT22;8482;54.396;18.590;2023-05-15T17:47:20;15.20;99.90
16728;DHT22;8482;54.396;18.590;2023-05-15T17:49:46;15.20;99.90
16728;DHT22;8482;54.396;18.590;2023-05-15T17:52:12;15.30;99.90
16728;DHT22;8482;54.396;18.590;2023-05-15T17:54:38;15.30;99.90
16728;DHT22;8482;54.396;18.590;2023-05-15T17:57:04;15.20;99.90
16728;DHT22;8482;54.396;18.590;2023-05-15T17:59:30;15.30;99.90
16728;DHT22;8482;54.396;18.590;2023-05-15T18:01:56;15.30;99.90
16728;DHT22;8482;54.396;18.590;2023-05-15T18:04:22;15.20;99.90
16728;DHT22;8482;54.396;18.590;2023-05-15T18:06:48;15.30;99.90
16728;DHT22;8482;54.396;18.590;2023-05-15T18:09:14;15.30;99.90
16728;DHT22;8482;54.396;18.590;2023-05-15T18:11:39;15.20;99.90
16728;DHT22;8482;54.396;18.590;2023-05-15T18:14:05;15.20;99.90
16728;DHT22;8482;54.396;18.590;2023-05-15T18:16:31;15.20;99.90
16728;DHT22;8482;54.396;18.590;2023-05-15T18:18:57;15.20;99.90
16728;DHT22;8482;54.396;18.590;2023-05-15T18:21:23;15.20;99.90
16728;DHT22;8482;54.396;18.590;2023-05-15T18:23:50;15.20;99.90
16728;DHT22;8482;54.396;18.590;2023-05-15T18:26:15;15.10;99.90
16728;DHT22;8482;54.396;18.590;2023-05-15T18:28:42;15.20;99.90
16728;DHT22;8482;54.396;18.590;2023-05-15T18:31:08;15.20;99.90
16728;DHT22;8482;54.396;18.590;2023-05-15T18:33:34;15.20;99.90
16728;DHT22;8482;54.396;18.590;2023-05-15T18:36:00;15.20;99.90
16728;DHT22;8482;54.396;18.590;2023-05-15T18:38:26;15.20;99.90
16728;DHT22;8482;54.396;18.590;2023-05-15T18:40:52;15.20;99.90
16728;DHT22;8482;54.396;18.590;2023-05-15T18:43:18;15.10;99.90
16728;DHT22;8482;54.396;18.590;2023-05-15T18:45:44;15.20;99.90
16728;DHT22;8482;54.396;18.590;2023-05-15T18:48:10;15.20;99.90
16728;DHT22;8482;54.396;18.590;2023-05-15T18:50:37;15.10;99.90
16728;DHT22;8482;54.396;18.590;2023-05-15T18:53:03;15.10;99.90
16728;DHT22;8482;54.396;18.590;2023-05-15T18:55:29;15.10;99.90
16728;DHT22;8482;54.396;18.590;2023-05-15T18:57:55;15.10;99.90
16728;DHT22;8482;54.396;18.590;2023-05-15T19:00:21;15.10;99.90
16728;DHT22;8482;54.396;18.590;2023-05-15T19:02:47;15.10;99.90
16728;DHT22;8482;54.396;18.590;2023-05-15T19:05:13;15.10;99.90
16728;DHT22;8482;54.396;18.590;2023-05-15T19:07:39;15.10;99.90
16728;DHT22;8482;54.396;18.590;2023-05-15T19:10:06;15.10;99.90
16728;DHT22;8482;54.396;18.590;2023-05-15T19:12:32;15.10;99.90
16728;DHT22;8482;54.396;18.590;2023-05-15T19:14:58;15.10;99.90
16728;DHT22;8482;54.396;18.590;2023-05-15T19:17:25;15.10;99.90
16728;DHT22;8482;54.396;18.590;2023-05-15T19:19:51;15.10;99.90
16728;DHT22;8482;54.396;18.590;2023-05-15T19:22:17;15.10;99.90
16728;DHT22;8482;54.396;18.590;2023-05-15T19:24:43;15.10;99.90
16728;DHT22;8482;54.396;18.590;2023-05-15T19:27:09;15.10;99.90
16728;DHT22;8482;54.396;18.590;2023-05-15T19:29:35;15.10;99.90
16728;DHT22;8482;54.396;18.590;2023-05-15T19:32:01;15.10;99.90
16728;DHT22;8482;54.396;18.590;2023-05-15T19:34:27;15.10;99.90
16728;DHT22;8482;54.396;18.590;2023-05-15T19:36:53;15.10;99.90
16728;DHT22;8482;54.396;18.590;2023-05-15T19:39:20;15.10;99.90
16728;DHT22;8482;54.396;18.590;2023-05-15T19:41:45;15.10;99.90
16728;DHT22;8482;54.396;18.590;2023-05-15T19:44:11;15.10;99.90
16728;DHT22;8482;54.396;18.590;2023-05-15T19:46:37;15.10;99.90
16728;DHT22;8482;54.396;18.590;2023-05-15T19:49:04;15.10;99.90
16728;DHT22;8482;54.396;18.590;2023-05-15T19:51:30;15.10;99.90
16728;DHT22;8482;54.396;18.590;2023-05-15T19:53:56;15.10;99.90
16728;DHT22;8482;54.396;18.590;2023-05-15T19:56:24;15.10;99.90
16728;DHT22;8482;54.396;18.590;2023-05-15T19:58:50;15.10;99.90
16728;DHT22;8482;54.396;18.590;2023-05-15T20:01:17;15.10;99.90
16728;DHT22;8482;54.396;18.590;2023-05-15T20:03:43;15.10;99.90
16728;DHT22;8482;54.396;18.590;2023-05-15T20:06:09;15.10;99.90
16728;DHT22;8482;54.396;18.590;2023-05-15T20:08:37;15.10;99.90
16728;DHT22;8482;54.396;18.590;2023-05-15T20:11:03;15.10;99.90
16728;DHT22;8482;54.396;18.590;2023-05-15T20:13:29;15.10;99.90
16728;DHT22;8482;54.396;18.590;2023-05-15T20:15:57;15.10;99.90
16728;DHT22;8482;54.396;18.590;2023-05-15T20:18:25;15.10;99.90
16728;DHT22;8482;54.396;18.590;2023-05-15T20:20:52;15.10;99.90
16728;DHT22;8482;54.396;18.590;2023-05-15T20:23:19;15.10;99.90
16728;DHT22;8482;54.396;18.590;2023-05-15T20:25:46;15.10;99.90
16728;DHT22;8482;54.396;18.590;2023-05-15T20:28:14;15.10;99.90
16728;DHT22;8482;54.396;18.590;2023-05-15T20:30:39;15.10;99.90
16728;DHT22;8482;54.396;18.590;2023-05-15T20:33:05;15.10;99.90
16728;DHT22;8482;54.396;18.590;2023-05-15T20:35:31;15.10;99.90
16728;DHT22;8482;54.396;18.590;2023-05-15T20:37:57;15.10;99.90
16728;DHT22;8482;54.396;18.590;2023-05-15T20:40:26;15.10;99.90
16728;DHT22;8482;54.396;18.590;2023-05-15T20:42:52;15.10;99.90
16728;DHT22;8482;54.396;18.590;2023-05-15T20:45:18;15.10;99.90
16728;DHT22;8482;54.396;18.590;2023-05-15T20:47:45;15.10;99.90
16728;DHT22;8482;54.396;18.590;2023-05-15T20:50:11;15.10;99.90
16728;DHT22;8482;54.396;18.590;2023-05-15T20:52:37;15.10;99.90
16728;DHT22;8482;54.396;18.590;2023-05-15T20:55:05;15.10;99.90
16728;DHT22;8482;54.396;18.590;2023-05-15T20:57:35;15.10;99.90
16728;DHT22;8482;54.396;18.590;2023-05-15T21:00:01;15.00;99.90
16728;DHT22;8482;54.396;18.590;2023-05-15T21:02:29;15.00;99.90
16728;DHT22;8482;54.396;18.590;2023-05-15T21:04:55;15.00;99.90
16728;DHT22;8482;54.396;18.590;2023-05-15T21:07:21;15.00;99.90
16728;DHT22;8482;54.396;18.590;2023-05-15T21:09:46;15.00;99.90
16728;DHT22;8482;54.396;18.590;2023-05-15T21:12:12;15.00;99.90
16728;DHT22;8482;54.396;18.590;2023-05-15T21:14:38;15.00;99.90
16728;DHT22;8482;54.396;18.590;2023-05-15T21:17:04;15.00;99.90
16728;DHT22;8482;54.396;18.590;2023-05-15T21:19:30;15.00;99.90
16728;DHT22;8482;54.396;18.590;2023-05-15T21:21:55;15.00;99.90
16728;DHT22;8482;54.396;18.590;2023-05-15T21:24:21;14.90;99.90
16728;DHT22;8482;54.396;18.590;2023-05-15T21:26:47;15.00;99.90
16728;DHT22;8482;54.396;18.590;2023-05-15T21:29:13;15.00;99.90
16728;DHT22;8482;54.396;18.590;2023-05-15T21:31:39;15.00;99.90
16728;DHT22;8482;54.396;18.590;2023-05-15T21:34:04;15.00;99.90
16728;DHT22;8482;54.396;18.590;2023-05-15T21:36:30;15.00;99.90
16728;DHT22;8482;54.396;18.590;2023-05-15T21:38:56;14.90;99.90
16728;DHT22;8482;54.396;18.590;2023-05-15T21:41:22;15.00;99.90
16728;DHT22;8482;54.396;18.590;2023-05-15T21:43:47;15.00;99.90
16728;DHT22;8482;54.396;18.590;2023-05-15T21:46:13;15.00;99.90
16728;DHT22;8482;54.396;18.590;2023-05-15T21:48:39;15.00;99.90
16728;DHT22;8482;54.396;18.590;2023-05-15T21:51:05;15.00;99.90
16728;DHT22;8482;54.396;18.590;2023-05-15T21:53:30;15.00;99.90
16728;DHT22;8482;54.396;18.590;2023-05-15T21:56:00;15.00;99.90
16728;DHT22;8482;54.396;18.590;2023-05-15T21:58:27;15.00;99.90
16728;DHT22;8482;54.396;18.590;2023-05-15T22:00:53;15.00;99.90